createdAt,value
2022-09-11T00:00:04.754Z,100840.34
2022-09-11T00:02:39.335Z,100831.59
2022-09-11T00:05:05.739Z,100843.16
2022-09-11T00:07:32.054Z,100841.72
2022-09-11T00:09:58.366Z,100838.84
2022-09-11T00:12:24.703Z,100844.69
2022-09-11T00:14:51.732Z,100846.78
2022-09-11T00:17:18.303Z,100849.00
2022-09-11T00:19:44.641Z,100840.34
2022-09-11T00:22:11.472Z,100843.97
2022-09-11T00:24:37.786Z,100843.31
2022-09-11T00:27:04.100Z,100849.06
2022-09-11T00:29:30.901Z,100851.22
2022-09-11T00:31:57.733Z,100854.09
2022-09-11T00:34:24.058Z,100849.00
2022-09-11T00:36:52.232Z,100851.91
2022-09-11T00:39:18.574Z,100851.91
2022-09-11T00:41:46.079Z,100847.59
2022-09-11T00:44:12.598Z,100851.91
2022-09-11T00:46:40.443Z,100838.84
2022-09-11T00:49:14.394Z,100851.91
2022-09-11T00:51:41.173Z,100851.16
2022-09-11T00:54:08.803Z,100848.28
2022-09-11T00:56:35.916Z,100852.56
2022-09-11T00:59:02.254Z,100852.56
2022-09-11T01:01:28.578Z,100854.72
2022-09-11T01:03:56.013Z,100853.97
2022-09-11T01:06:22.610Z,100860.47
2022-09-11T01:08:49.322Z,100854.72
2022-09-11T01:11:28.170Z,100856.19
2022-09-11T01:13:54.426Z,100860.47
2022-09-11T01:16:27.737Z,100869.16
2022-09-11T01:19:12.767Z,100856.09
2022-09-11T01:21:52.196Z,100856.09
2022-09-11T01:24:41.505Z,100857.50
2022-09-11T01:27:10.398Z,100853.06
2022-09-11T01:29:39.877Z,100866.66
2022-09-11T01:32:11.658Z,100855.88
2022-09-11T01:35:01.845Z,100853.06
2022-09-11T01:37:31.175Z,100854.44
2022-09-11T01:39:59.654Z,100860.31
2022-09-11T01:42:26.003Z,100864.63
2022-09-11T01:44:53.414Z,100861.03
2022-09-11T01:47:19.762Z,100853.78
2022-09-11T01:49:50.901Z,100858.84
2022-09-11T01:52:27.986Z,100856.00
2022-09-11T01:54:56.846Z,100870.38
2022-09-11T01:57:43.742Z,100866.06
2022-09-11T02:00:11.549Z,100867.53
2022-09-11T02:02:52.386Z,100868.91
2022-09-11T02:05:20.963Z,100858.84
2022-09-11T02:07:58.259Z,100858.06
2022-09-11T02:10:30.193Z,100860.22
2022-09-11T02:12:58.125Z,100862.38
2022-09-11T02:15:25.753Z,100863.13
2022-09-11T02:17:58.202Z,100870.31
2022-09-11T02:20:28.536Z,100876.09
2022-09-11T02:22:54.895Z,100878.97
2022-09-11T02:25:23.535Z,100878.22
2022-09-11T02:27:54.550Z,100874.59
2022-09-11T02:30:21.209Z,100870.22
2022-09-11T02:32:47.655Z,100873.84
2022-09-11T02:35:16.224Z,100863.72
2022-09-11T02:37:45.981Z,100864.47
2022-09-11T02:40:20.249Z,100871.63
2022-09-11T02:42:56.799Z,100877.41
2022-09-11T02:45:32.474Z,100875.28
2022-09-11T02:48:05.757Z,100884.66
2022-09-11T02:50:39.290Z,100883.88
2022-09-11T02:53:11.483Z,100884.59
2022-09-11T02:55:51.025Z,100886.06
2022-09-11T02:58:26.884Z,100891.84
2022-09-11T03:01:00.602Z,100890.38
2022-09-11T03:03:27.082Z,100888.88
2022-09-11T03:05:53.409Z,100887.47
2022-09-11T03:08:20.351Z,100896.16
2022-09-11T03:10:49.886Z,100888.88
2022-09-11T03:13:16.744Z,100894.59
2022-09-11T03:15:44.719Z,100901.84
2022-09-11T03:18:15.598Z,100906.19
2022-09-11T03:20:46.899Z,100903.31
2022-09-11T03:23:13.453Z,100910.50
2022-09-11T03:25:40.692Z,100909.63
2022-09-11T03:28:10.377Z,100913.31
2022-09-11T03:31:54.558Z,100918.84
2022-09-11T03:34:17.999Z,100930.47
2022-09-11T03:36:45.803Z,100933.44
2022-09-11T03:39:13.458Z,100938.56
2022-09-11T03:41:39.790Z,100946.50
2022-09-11T03:44:06.144Z,100945.06
2022-09-11T03:46:32.970Z,100955.22
2022-09-11T03:48:59.737Z,100957.34
2022-09-11T03:51:28.875Z,100957.34
2022-09-11T03:53:55.409Z,100963.13
2022-09-11T03:56:22.134Z,100950.84
2022-09-11T03:58:48.947Z,100959.50
2022-09-11T04:01:15.684Z,100959.50
2022-09-11T04:03:42.605Z,100953.75
2022-09-11T04:06:14.791Z,100960.94
2022-09-11T04:08:41.298Z,100963.06
2022-09-11T04:11:11.465Z,100963.81
2022-09-11T04:13:38.714Z,100963.81
2022-09-11T04:16:13.839Z,100971.72
2022-09-11T04:18:41.516Z,100968.09
2022-09-11T04:21:08.525Z,100959.44
2022-09-11T04:23:35.054Z,100966.63
2022-09-11T04:26:01.411Z,100967.34
2022-09-11T04:28:28.386Z,100968.09
2022-09-11T04:30:54.847Z,100960.84
2022-09-11T04:33:21.797Z,100969.50
2022-09-11T04:35:48.341Z,100975.28
2022-09-11T04:38:15.267Z,100981.06
2022-09-11T04:40:41.671Z,100982.44
2022-09-11T04:43:08.093Z,100979.56
2022-09-11T04:45:36.315Z,100988.22
2022-09-11T04:48:04.254Z,100986.03
2022-09-11T04:50:31.493Z,100979.47
2022-09-11T04:53:12.154Z,100986.75
2022-09-11T04:55:38.515Z,100988.22
2022-09-11T04:58:05.583Z,100976.59
2022-09-11T05:00:33.304Z,100972.31
2022-09-11T05:02:59.913Z,100982.38
2022-09-11T05:05:26.583Z,100985.25
2022-09-11T05:07:52.918Z,100991.03
2022-09-11T05:10:20.127Z,100987.41
2022-09-11T05:12:47.039Z,100990.28
2022-09-11T05:15:13.516Z,100998.94
2022-09-11T05:17:40.266Z,100991.03
2022-09-11T05:20:11.882Z,100993.09
2022-09-11T05:22:38.564Z,100996.75
2022-09-11T05:25:05.021Z,101001.09
2022-09-11T05:27:31.380Z,100990.22
2022-09-11T05:29:57.757Z,100990.97
2022-09-11T05:32:24.151Z,101003.25
2022-09-11T05:34:50.501Z,100999.63
2022-09-11T05:37:19.811Z,101002.53
2022-09-11T05:39:47.819Z,101011.19
2022-09-11T05:42:15.748Z,101010.78
2022-09-11T05:44:47.225Z,101013.09
2022-09-11T05:47:14.283Z,101013.56
2022-09-11T05:49:42.261Z,101017.38
2022-09-11T05:52:10.242Z,101029.06
2022-09-11T05:54:36.902Z,101029.81
2022-09-11T05:57:07.811Z,101034.94
2022-09-11T05:59:36.587Z,101042.09
2022-09-11T06:02:03.030Z,101047.94
2022-09-11T06:04:40.355Z,101047.94
2022-09-11T06:07:07.934Z,101057.38
2022-09-11T06:09:35.090Z,101055.88
2022-09-11T06:12:01.737Z,101063.16
2022-09-11T06:14:29.086Z,101055.13
2022-09-11T06:16:57.131Z,101065.94
2022-09-11T06:19:24.997Z,101064.53
2022-09-11T06:21:51.408Z,101068.94
2022-09-11T06:24:28.233Z,101068.16
2022-09-11T06:26:56.067Z,101077.59
2022-09-11T06:29:23.562Z,101081.13
2022-09-11T06:31:51.372Z,101078.16
2022-09-11T06:34:21.005Z,101077.50
2022-09-11T06:36:51.841Z,101087.63
2022-09-11T06:39:20.422Z,101078.97
2022-09-11T06:41:46.794Z,101084.75
2022-09-11T06:44:15.189Z,101094.16
2022-09-11T06:46:41.583Z,101093.41
2022-09-11T06:49:09.450Z,101093.31
2022-09-11T06:51:55.742Z,101096.72
2022-09-11T06:54:22.084Z,101094.66
2022-09-11T06:56:48.412Z,101086.06
2022-09-11T06:59:15.887Z,101093.41
2022-09-11T07:01:42.487Z,101088.28
2022-09-11T07:04:10.370Z,101084.00
2022-09-11T07:06:38.513Z,101085.47
2022-09-11T07:09:05.036Z,101095.56
2022-09-11T07:11:43.786Z,101089.78
2022-09-11T07:14:10.318Z,101089.03
2022-09-11T07:16:39.484Z,101089.03
2022-09-11T07:19:10.347Z,101095.56
2022-09-11T07:21:38.427Z,101106.38
2022-09-11T07:24:05.694Z,101097.63
2022-09-11T07:26:36.386Z,101098.34
2022-09-11T07:29:08.162Z,101103.47
2022-09-11T07:31:34.615Z,101100.59
2022-09-11T07:34:02.665Z,101105.59
2022-09-11T07:36:30.110Z,101112.16
2022-09-11T07:38:57.122Z,101116.41
2022-09-11T07:41:31.569Z,101107.75
2022-09-11T07:44:03.298Z,101112.16
2022-09-11T07:46:32.839Z,101112.16
2022-09-11T07:49:03.437Z,101112.88
2022-09-11T07:51:30.227Z,101106.38
2022-09-11T07:54:01.212Z,101112.88
2022-09-11T07:56:31.141Z,101112.16
2022-09-11T07:59:01.405Z,101117.09
2022-09-11T08:01:29.649Z,101113.44
2022-09-11T08:03:58.158Z,101114.94
2022-09-11T08:06:27.189Z,101120.81
2022-09-11T08:08:54.286Z,101121.97
2022-09-11T08:11:21.312Z,101124.25
2022-09-11T08:13:50.745Z,101130.19
2022-09-11T08:16:19.358Z,101129.28
2022-09-11T08:18:45.831Z,101140.09
2022-09-11T08:21:13.933Z,101142.28
2022-09-11T08:23:41.084Z,101132.91
2022-09-11T08:26:12.981Z,101142.63
2022-09-11T08:28:43.061Z,101149.53
2022-09-11T08:31:09.883Z,101146.59
2022-09-11T08:33:36.381Z,101146.56
2022-09-11T08:36:06.393Z,101147.09
2022-09-11T08:38:33.388Z,101149.88
2022-09-11T08:41:07.972Z,101150.84
2022-09-11T08:43:35.127Z,101161.47
2022-09-11T08:46:04.701Z,101159.59
2022-09-11T08:48:35.730Z,101158.28
2022-09-11T08:51:02.062Z,101154.59
2022-09-11T08:53:30.401Z,101159.28
2022-09-11T08:56:00.316Z,101161.47
2022-09-11T08:58:33.538Z,101160.44
2022-09-11T09:01:13.943Z,101156.34
2022-09-11T09:03:44.348Z,101160.34
2022-09-11T09:06:21.170Z,101156.81
2022-09-11T09:09:10.973Z,101156.72
2022-09-11T09:11:42.681Z,101154.69
2022-09-11T09:14:29.154Z,101159.50
2022-09-11T09:16:58.380Z,101160.88
2022-09-11T09:19:35.070Z,101159.19
2022-09-11T09:22:03.418Z,101157.03
2022-09-11T09:24:32.772Z,101158.53
2022-09-11T09:26:59.377Z,101173.09
2022-09-11T09:29:28.509Z,101172.44
2022-09-11T09:32:01.976Z,101167.13
2022-09-11T09:34:30.910Z,101162.34
2022-09-11T09:37:04.277Z,101169.91
2022-09-11T09:39:30.639Z,101165.38
2022-09-11T09:42:05.082Z,101165.38
2022-09-11T09:44:51.182Z,101167.03
2022-09-11T09:47:17.500Z,101172.63
2022-09-11T09:49:43.823Z,101167.19
2022-09-11T09:52:17.025Z,101175.78
2022-09-11T09:54:43.403Z,101172.97
2022-09-11T09:57:10.520Z,101177.81
2022-09-11T09:59:40.858Z,101168.91
2022-09-11T10:02:07.736Z,101163.88
2022-09-11T10:04:34.140Z,101173.63
2022-09-11T10:07:14.090Z,101170.47
2022-09-11T10:09:45.420Z,101175.41
2022-09-11T10:12:21.687Z,101184.88
2022-09-11T10:14:52.474Z,101175.59
2022-09-11T10:17:19.429Z,101169.72
2022-09-11T10:19:46.600Z,101181.34
2022-09-11T10:22:29.067Z,101181.66
2022-09-11T10:25:11.626Z,101178.19
2022-09-11T10:27:52.572Z,101171.13
2022-09-11T10:30:32.067Z,101174.13
2022-09-11T10:33:02.710Z,101175.59
2022-09-11T10:35:30.018Z,101182.78
2022-09-11T10:38:08.815Z,101182.69
2022-09-11T10:40:35.184Z,101191.97
2022-09-11T10:43:01.503Z,101189.75
2022-09-11T10:45:27.918Z,101189.66
2022-09-11T10:47:54.276Z,101183.97
2022-09-11T10:50:21.814Z,101181.34
2022-09-11T10:53:03.390Z,101183.59
2022-09-11T10:55:30.813Z,101189.38
2022-09-11T10:57:59.337Z,101187.97
2022-09-11T11:00:27.126Z,101194.47
2022-09-11T11:02:56.114Z,101194.47
2022-09-11T11:05:24.546Z,101191.56
2022-09-11T11:08:06.420Z,101193.09
2022-09-11T11:10:39.801Z,101187.50
2022-09-11T11:13:11.039Z,101186.00
2022-09-11T11:15:40.606Z,101180.22
2022-09-11T11:18:18.935Z,101180.22
2022-09-11T11:20:52.749Z,101181.53
2022-09-11T11:23:45.517Z,101175.13
2022-09-11T11:26:11.770Z,101184.22
2022-09-11T11:28:41.028Z,101176.22
2022-09-11T11:31:27.526Z,101180.75
2022-09-11T11:34:03.011Z,101190.25
2022-09-11T11:36:34.532Z,101195.28
2022-09-11T11:39:02.027Z,101195.66
2022-09-11T11:41:35.995Z,101198.28
2022-09-11T11:44:02.806Z,101192.50
2022-09-11T11:46:30.263Z,101193.06
2022-09-11T11:48:58.724Z,101194.56
2022-09-11T11:51:29.637Z,101191.00
2022-09-11T11:54:03.715Z,101194.34
2022-09-11T11:56:35.106Z,101193.66
2022-09-11T11:59:04.117Z,101191.28
2022-09-11T12:01:41.007Z,101195.06
2022-09-11T12:04:26.383Z,101195.25
2022-09-11T12:06:52.959Z,101198.94
2022-09-11T12:09:19.476Z,101195.56
2022-09-11T12:11:46.710Z,101197.47
2022-09-11T12:14:26.121Z,101192.34
2022-09-11T12:16:52.438Z,101195.66
2022-09-11T12:19:19.840Z,101198.28
2022-09-11T12:21:52.270Z,101204.72
2022-09-11T12:24:19.799Z,101198.63
2022-09-11T12:26:46.216Z,101197.63
2022-09-11T12:29:13.715Z,101202.47
2022-09-11T12:31:49.188Z,101200.94
2022-09-11T12:34:18.712Z,101200.75
2022-09-11T12:36:54.310Z,101207.88
2022-09-11T12:39:24.808Z,101206.53
2022-09-11T12:41:51.154Z,101214.81
2022-09-11T12:44:43.609Z,101212.91
2022-09-11T12:47:11.154Z,101223.22
2022-09-11T12:49:37.537Z,101224.38
2022-09-11T12:52:03.850Z,101216.97
2022-09-11T12:54:39.985Z,101217.84
2022-09-11T12:57:06.830Z,101210.81
2022-09-11T12:59:38.523Z,101208.06
2022-09-11T13:02:05.847Z,101197.06
2022-09-11T13:04:32.297Z,101205.09
2022-09-11T13:06:59.372Z,101219.19
2022-09-11T13:09:29.446Z,101214.19
2022-09-11T13:11:56.413Z,101210.63
2022-09-11T13:14:29.761Z,101202.84
2022-09-11T13:16:56.426Z,101202.13
2022-09-11T13:19:22.838Z,101195.59
2022-09-11T13:21:52.135Z,101195.28
2022-09-11T13:24:25.487Z,101183.88
2022-09-11T13:26:55.318Z,101187.34
2022-09-11T13:29:26.664Z,101188.59
2022-09-11T13:31:52.983Z,101188.34
2022-09-11T13:34:20.095Z,101200.72
2022-09-11T13:36:48.578Z,101203.22
2022-09-11T13:39:14.898Z,101194.63
2022-09-11T13:41:44.340Z,101205.38
2022-09-11T13:44:25.320Z,101200.91
2022-09-11T13:46:51.775Z,101200.91
2022-09-11T13:49:18.034Z,101208.91
2022-09-11T13:51:44.922Z,101206.84
2022-09-11T13:54:18.311Z,101201.75
2022-09-11T13:56:56.834Z,101204.06
2022-09-11T13:59:39.818Z,101209.25
2022-09-11T14:02:08.507Z,101207.53
2022-09-11T14:04:38.465Z,101207.19
2022-09-11T14:07:12.002Z,101200.03
2022-09-11T14:09:38.324Z,101207.97
2022-09-11T14:12:04.743Z,101210.84
2022-09-11T14:14:31.253Z,101211.16
2022-09-11T14:16:59.061Z,101209.09
2022-09-11T14:19:26.174Z,101211.31
2022-09-11T14:21:52.468Z,101204.81
2022-09-11T14:24:24.520Z,101210.00
2022-09-11T14:26:50.846Z,101205.72
2022-09-11T14:29:20.104Z,101211.50
2022-09-11T14:31:46.904Z,101210.75
2022-09-11T14:34:25.347Z,101198.69
2022-09-11T14:36:52.972Z,101204.72
2022-09-11T14:39:22.442Z,101204.81
2022-09-11T14:41:48.758Z,101210.25
2022-09-11T14:44:15.603Z,101205.59
2022-09-11T14:46:42.152Z,101208.97
2022-09-11T14:49:09.433Z,101206.34
2022-09-11T14:51:36.602Z,101202.91
2022-09-11T14:54:02.986Z,101205.97
2022-09-11T14:56:29.329Z,101209.34
2022-09-11T14:58:55.672Z,101203.25
2022-09-11T15:01:22.025Z,101204.59
2022-09-11T15:03:48.460Z,101207.25
2022-09-11T15:06:16.147Z,101205.75
2022-09-11T15:08:42.955Z,101208.00
2022-09-11T15:11:09.262Z,101204.38
2022-09-11T15:13:35.802Z,101201.50
2022-09-11T15:16:02.381Z,101199.06
2022-09-11T15:18:28.726Z,101204.66
2022-09-11T15:20:55.036Z,101203.19
2022-09-11T15:23:21.376Z,101207.66
2022-09-11T15:25:47.693Z,101215.84
2022-09-11T15:28:14.151Z,101216.22
2022-09-11T15:30:41.563Z,101209.53
2022-09-11T15:33:07.874Z,101219.06
2022-09-11T15:35:34.190Z,101215.47
2022-09-11T15:38:00.517Z,101221.94
2022-09-11T15:40:26.900Z,101210.44
2022-09-11T15:42:53.676Z,101226.13
2022-09-11T15:45:20.218Z,101220.25
2022-09-11T15:47:47.180Z,101215.91
2022-09-11T15:50:18.069Z,101219.44
2022-09-11T15:52:44.886Z,101217.22
2022-09-11T15:55:11.190Z,101204.25
2022-09-11T15:57:39.128Z,101210.88
2022-09-11T16:00:05.562Z,101210.03
2022-09-11T16:02:38.324Z,101204.16
2022-09-11T16:05:04.707Z,101195.59
2022-09-11T16:07:31.032Z,101204.91
2022-09-11T16:09:58.905Z,101204.81
2022-09-11T16:12:25.735Z,101209.03
2022-09-11T16:14:52.537Z,101211.28
2022-09-11T16:17:20.569Z,101205.41
2022-09-11T16:19:47.535Z,101206.88
2022-09-11T16:22:13.873Z,101201.19
2022-09-11T16:24:40.191Z,101201.56
2022-09-11T16:27:07.018Z,101198.84
2022-09-11T16:29:56.586Z,101204.63
2022-09-11T16:32:27.993Z,101205.09
2022-09-11T16:34:55.108Z,101197.25
2022-09-11T16:37:21.423Z,101194.28
2022-09-11T16:39:49.669Z,101191.97
2022-09-11T16:42:16.380Z,101192.53
2022-09-11T16:44:42.692Z,101197.41
2022-09-11T16:47:09.750Z,101196.00
2022-09-11T16:49:50.357Z,101188.00
2022-09-11T16:52:43.888Z,101190.97
2022-09-11T16:55:10.213Z,101190.88
2022-09-11T16:57:37.224Z,101193.03
2022-09-11T17:00:04.155Z,101195.44
2022-09-11T17:02:30.490Z,101201.19
2022-09-11T17:04:56.799Z,101206.78
2022-09-11T17:07:23.830Z,101199.53
2022-09-11T17:09:50.151Z,101203.09
2022-09-11T17:12:17.837Z,101214.53
2022-09-11T17:14:44.162Z,101206.63
2022-09-11T17:17:10.574Z,101207.94
2022-09-11T17:19:36.885Z,101202.16
2022-09-11T17:22:03.856Z,101205.13
2022-09-11T17:24:32.030Z,101213.78
2022-09-11T17:26:58.398Z,101210.19
2022-09-11T17:29:24.711Z,101218.34
2022-09-11T17:32:05.047Z,101213.31
2022-09-11T17:34:32.061Z,101204.00
2022-09-11T17:36:58.713Z,101211.28
2022-09-11T17:39:25.051Z,101208.47
2022-09-11T17:41:51.410Z,101209.84
2022-09-11T17:44:17.744Z,101216.50
2022-09-11T17:46:44.149Z,101210.72
2022-09-11T17:49:10.521Z,101211.09
2022-09-11T17:51:36.851Z,101208.56
2022-09-11T17:54:03.174Z,101212.56
2022-09-11T17:56:32.483Z,101207.28
2022-09-11T17:58:59.642Z,101205.41
2022-09-11T18:01:26.102Z,101206.78
2022-09-11T18:03:53.017Z,101208.91
2022-09-11T18:06:25.315Z,101206.63
2022-09-11T18:08:51.693Z,101215.66
2022-09-11T18:11:18.325Z,101226.22
2022-09-11T18:13:44.722Z,101216.19
2022-09-11T18:16:11.764Z,101217.81
2022-09-11T18:18:39.365Z,101213.78
2022-09-11T18:21:09.035Z,101211.09
2022-09-11T18:23:39.751Z,101214.81
2022-09-11T18:26:07.130Z,101215.44
2022-09-11T18:28:34.021Z,101219.25
2022-09-11T18:31:00.769Z,101220.03
2022-09-11T18:33:27.119Z,101231.66
2022-09-11T18:35:53.434Z,101229.41
2022-09-11T18:38:20.045Z,101229.97
2022-09-11T18:40:46.558Z,101232.94
2022-09-11T18:43:13.135Z,101232.94
2022-09-11T18:45:41.463Z,101244.41
2022-09-11T18:48:07.838Z,101237.16
2022-09-11T18:53:17.877Z,101242.19
2022-09-11T18:55:44.189Z,101245.09
2022-09-11T18:58:10.519Z,101248.44
2022-09-11T19:00:37.166Z,101248.34
2022-09-11T19:03:03.605Z,101252.16
2022-09-11T19:05:31.100Z,101250.00
2022-09-11T19:08:00.069Z,101257.28
2022-09-11T19:10:26.619Z,101252.16
2022-09-11T19:12:53.035Z,101260.81
2022-09-11T19:15:19.366Z,101260.81
2022-09-11T19:17:47.902Z,101260.81
2022-09-11T19:20:15.657Z,101271.59
2022-09-11T19:22:41.995Z,101274.50
2022-09-11T19:25:09.953Z,101272.34
2022-09-11T19:27:37.221Z,101279.53
2022-09-11T19:30:06.113Z,101282.41
2022-09-11T19:32:32.621Z,101280.91
2022-09-11T19:35:00.198Z,101285.94
2022-09-11T19:37:28.188Z,101288.84
2022-09-11T19:39:54.662Z,101290.25
2022-09-11T19:42:21.006Z,101290.25
2022-09-11T19:44:47.783Z,101296.03
2022-09-11T19:47:14.111Z,101288.09
2022-09-11T19:49:40.432Z,101298.13
2022-09-11T19:52:08.026Z,101288.75
2022-09-11T19:54:35.515Z,101291.63
2022-09-11T19:57:02.449Z,101295.84
2022-09-11T19:59:28.764Z,101300.28
2022-09-11T20:01:55.169Z,101295.25
2022-09-11T20:04:21.541Z,101290.16
2022-09-11T20:09:30.381Z,101303.19
2022-09-11T20:11:57.543Z,101289.41
2022-09-11T20:14:23.883Z,101301.69
2022-09-11T20:16:50.326Z,101297.31
2022-09-11T20:19:17.263Z,101300.19
2022-09-11T20:21:43.592Z,101300.19
2022-09-11T20:24:09.941Z,101297.31
2022-09-11T20:26:36.270Z,101301.59
2022-09-11T20:29:03.925Z,101295.09
2022-09-11T20:31:31.567Z,101301.59
2022-09-11T20:33:58.095Z,101299.38
2022-09-11T20:36:24.407Z,101302.34
2022-09-11T20:38:51.284Z,101304.41
2022-09-11T20:41:17.638Z,101310.25
2022-09-11T20:43:44.089Z,101301.59
2022-09-11T20:46:10.480Z,101301.59
2022-09-11T20:48:36.802Z,101308.75
2022-09-11T20:51:03.653Z,101308.75
2022-09-11T20:53:29.987Z,101306.53
2022-09-11T20:56:03.150Z,101308.75
2022-09-11T20:58:29.479Z,101308.75
2022-09-11T21:00:56.657Z,101304.41
2022-09-11T21:03:23.076Z,101304.41
2022-09-11T21:05:49.377Z,101306.53
2022-09-11T21:08:15.694Z,101309.44
2022-09-11T21:10:42.003Z,101304.31
2022-09-11T21:13:10.758Z,101305.03
2022-09-11T21:15:46.530Z,101304.31
2022-09-11T21:18:12.867Z,101300.09
2022-09-11T21:20:39.293Z,101305.88
2022-09-11T21:23:05.878Z,101303.00
2022-09-11T21:25:32.193Z,101310.91
2022-09-11T21:27:58.523Z,101308.75
2022-09-11T21:30:24.841Z,101314.53
2022-09-11T21:32:51.558Z,101311.66
2022-09-11T21:35:17.891Z,101298.63
2022-09-11T21:37:44.239Z,101305.88
2022-09-11T21:40:10.635Z,101313.16
2022-09-11T21:42:36.981Z,101306.75
2022-09-11T21:45:03.330Z,101308.84
2022-09-11T21:47:29.645Z,101305.97
2022-09-11T21:49:55.958Z,101304.50
2022-09-11T21:52:22.291Z,101297.97
2022-09-11T21:54:51.042Z,101295.75
2022-09-11T21:57:17.414Z,101298.63
2022-09-11T21:59:43.739Z,101303.00
2022-09-11T22:02:11.622Z,101298.63
2022-09-11T22:04:37.966Z,101304.41
2022-09-11T22:07:04.805Z,101298.63
2022-09-11T22:09:31.145Z,101295.75
2022-09-11T22:11:59.866Z,101301.50
2022-09-11T22:14:26.422Z,101294.19
2022-09-11T22:16:52.741Z,101307.94
2022-09-11T22:19:19.255Z,101305.81
2022-09-11T22:21:45.574Z,101308.69
2022-09-11T22:24:11.883Z,101305.13
2022-09-11T22:26:38.338Z,101307.19
2022-09-11T22:29:04.649Z,101312.97
2022-09-11T22:31:31.040Z,101307.19
2022-09-11T22:33:57.574Z,101318.00
2022-09-11T22:36:24.794Z,101294.19
2022-09-11T22:38:51.370Z,101308.59
2022-09-11T22:41:17.697Z,101304.22
2022-09-11T22:43:44.167Z,101307.09
2022-09-11T22:46:10.762Z,101306.44
2022-09-11T22:48:37.528Z,101309.63
2022-09-11T22:51:04.774Z,101302.75
2022-09-11T22:53:31.097Z,101307.00
2022-09-11T22:55:57.460Z,101307.00
2022-09-11T22:58:23.817Z,101309.88
2022-09-11T23:00:50.439Z,101301.13
2022-09-11T23:03:16.822Z,101304.88
2022-09-11T23:06:01.652Z,101307.00
2022-09-11T23:08:28.534Z,101302.63
2022-09-11T23:10:54.899Z,101298.34
2022-09-11T23:13:21.255Z,101293.97
2022-09-11T23:15:47.675Z,101305.53
2022-09-11T23:18:13.982Z,101293.25
2022-09-11T23:20:40.387Z,101296.13
2022-09-11T23:23:06.696Z,101296.88
2022-09-11T23:25:34.181Z,101292.47
2022-09-11T23:28:00.494Z,101294.72
2022-09-11T23:30:26.812Z,101293.25
2022-09-11T23:32:53.354Z,101293.25
2022-09-11T23:35:19.653Z,101291.75
2022-09-11T23:37:45.995Z,101292.47
2022-09-11T23:40:12.344Z,101292.47
2022-09-11T23:42:38.669Z,101291.75
2022-09-11T23:45:07.463Z,101291.66
2022-09-11T23:47:33.769Z,101283.00
2022-09-11T23:50:00.085Z,101286.66
2022-09-11T23:52:26.450Z,101280.09
2022-09-11T23:54:52.770Z,101292.31
2022-09-11T23:57:19.074Z,101288.03
2022-09-11T23:59:45.389Z,101276.47
